createdAt,value
2017-06-03T00:02:04.325Z,7.62
2017-06-03T00:04:31.441Z,8.44
2017-06-03T00:06:58.559Z,7.82
2017-06-03T00:09:25.720Z,6.78
2017-06-03T00:11:52.837Z,8.42
2017-06-03T00:14:19.997Z,7.94
2017-06-03T00:16:47.160Z,8.72
2017-06-03T00:19:14.272Z,7.18
2017-06-03T00:21:41.392Z,7.30
2017-06-03T00:24:08.580Z,7.84
2017-06-03T00:26:35.701Z,7.36
2017-06-03T00:29:02.869Z,8.12
2017-06-03T00:31:29.997Z,7.04
2017-06-03T00:33:57.108Z,8.36
2017-06-03T00:36:24.368Z,8.06
2017-06-03T00:38:51.525Z,6.26
2017-06-03T00:41:18.644Z,7.20
2017-06-03T00:43:45.807Z,7.94
2017-06-03T00:46:12.981Z,7.66
2017-06-03T00:48:40.096Z,7.30
2017-06-03T00:51:07.208Z,6.98
2017-06-03T00:53:33.621Z,6.88
2017-06-03T00:56:00.740Z,7.00
2017-06-03T00:58:27.929Z,7.24
2017-06-03T01:00:55.064Z,7.40
2017-06-03T01:03:22.184Z,7.36
2017-06-03T01:05:49.356Z,8.34
2017-06-03T01:08:16.473Z,7.28
2017-06-03T01:10:43.589Z,7.60
2017-06-03T01:13:10.748Z,7.58
2017-06-03T01:15:37.905Z,7.22
2017-06-03T01:18:05.020Z,8.24
2017-06-03T01:20:32.179Z,7.84
2017-06-03T01:22:59.678Z,7.30
2017-06-03T01:25:26.797Z,7.42
2017-06-03T01:27:53.912Z,8.10
2017-06-03T01:30:21.214Z,7.18
2017-06-03T01:32:48.380Z,7.04
2017-06-03T01:35:15.526Z,8.44
2017-06-03T01:37:42.702Z,7.08
2017-06-03T01:40:09.885Z,7.70
2017-06-03T01:42:37.080Z,7.98
2017-06-03T01:45:04.282Z,8.06
2017-06-03T01:47:31.433Z,7.52
2017-06-03T01:49:58.648Z,7.02
2017-06-03T01:52:25.052Z,7.50
2017-06-03T01:54:52.260Z,6.98
2017-06-03T01:57:19.392Z,7.58
2017-06-03T01:59:46.569Z,8.00
2017-06-03T02:02:13.723Z,8.84
2017-06-03T02:04:40.844Z,7.16
2017-06-03T02:07:08.018Z,7.56
2017-06-03T02:09:35.157Z,6.78
2017-06-03T02:12:02.357Z,7.00
2017-06-03T02:14:29.568Z,8.72
2017-06-03T02:16:56.696Z,8.00
2017-06-03T02:19:23.861Z,7.76
2017-06-03T02:21:50.995Z,8.46
2017-06-03T02:24:18.176Z,7.30
2017-06-03T02:26:45.305Z,8.14
2017-06-03T02:29:12.454Z,7.70
2017-06-03T02:31:39.665Z,6.52
2017-06-03T02:34:06.792Z,7.82
2017-06-03T02:36:33.925Z,7.12
2017-06-03T02:39:01.088Z,7.94
2017-06-03T02:41:28.233Z,7.50
2017-06-03T02:43:55.509Z,8.00
2017-06-03T02:46:22.636Z,7.92
2017-06-03T02:48:49.769Z,8.26
2017-06-03T02:51:16.966Z,7.42
2017-06-03T02:53:44.095Z,7.02
2017-06-03T02:56:10.493Z,7.60
2017-06-03T02:59:12.770Z,8.23
2017-06-03T03:01:39.204Z,7.63
2017-06-03T03:04:11.409Z,8.83
2017-06-03T03:06:42.912Z,6.77
2017-06-03T03:09:15.112Z,7.27
2017-06-03T03:11:46.617Z,7.73
2017-06-03T03:14:18.426Z,7.27
2017-06-03T03:16:49.937Z,7.40
2017-06-03T03:19:21.486Z,7.53
2017-06-03T03:21:52.965Z,7.50
2017-06-03T03:24:24.564Z,7.50
2017-06-03T03:26:56.091Z,8.07
2017-06-03T03:29:27.762Z,8.23
2017-06-03T03:31:59.286Z,7.90
2017-06-03T03:34:30.886Z,9.07
2017-06-03T03:37:02.392Z,7.17
2017-06-03T03:39:33.938Z,7.60
2017-06-03T03:42:05.476Z,6.80
2017-06-03T03:44:37.671Z,8.00
2017-06-03T03:47:09.269Z,7.50
2017-06-03T03:49:40.774Z,8.80
2017-06-03T03:52:12.345Z,8.07
2017-06-03T03:54:43.888Z,8.90
2017-06-03T03:57:15.401Z,9.10
2017-06-03T03:59:46.949Z,8.30
2017-06-03T04:02:18.409Z,7.53
2017-06-03T04:04:50.656Z,9.10
2017-06-03T04:07:22.158Z,8.67
2017-06-03T04:09:53.698Z,8.00
2017-06-03T04:12:25.186Z,9.47
2017-06-03T04:14:56.745Z,8.73
2017-06-03T04:17:28.284Z,9.57
2017-06-03T04:19:59.745Z,8.03
2017-06-03T04:22:31.261Z,9.63
2017-06-03T04:25:02.773Z,8.37
2017-06-03T04:27:34.329Z,8.90
2017-06-03T04:30:05.861Z,9.10
2017-06-03T04:32:37.386Z,8.70
2017-06-03T04:35:08.872Z,8.63
2017-06-03T04:37:40.413Z,8.17
2017-06-03T04:40:11.966Z,9.20
2017-06-03T04:42:43.442Z,10.07
2017-06-03T04:45:10.062Z,9.07
2017-06-03T04:47:41.515Z,9.30
2017-06-03T04:50:13.045Z,8.50
2017-06-03T04:52:45.345Z,10.17
2017-06-03T04:55:16.878Z,9.00
2017-06-03T04:57:48.395Z,11.97
2017-06-03T05:00:19.925Z,8.97
2017-06-03T05:02:51.448Z,8.17
2017-06-03T05:05:23.071Z,8.50
2017-06-03T05:07:54.613Z,8.50
2017-06-03T05:10:26.140Z,9.10
2017-06-03T05:12:57.654Z,8.70
2017-06-03T05:15:29.191Z,10.10
2017-06-03T05:18:01.422Z,8.63
2017-06-03T05:20:33.052Z,8.87
2017-06-03T05:23:04.565Z,9.67
2017-06-03T05:25:36.120Z,10.17
2017-06-03T05:28:07.652Z,8.50
2017-06-03T05:30:39.976Z,10.00
2017-06-03T05:33:11.465Z,10.77
2017-06-03T05:35:43.105Z,9.83
2017-06-03T05:38:14.598Z,10.17
2017-06-03T05:40:46.448Z,9.73
2017-06-03T05:43:18.231Z,9.97
2017-06-03T05:45:50.253Z,9.70
2017-06-03T05:48:22.576Z,10.37
2017-06-03T05:50:54.165Z,9.53
2017-06-03T05:53:25.698Z,9.10
2017-06-03T05:55:57.329Z,11.23
2017-06-03T05:58:28.834Z,9.50
2017-06-03T06:01:01.117Z,10.77
2017-06-03T06:03:33.319Z,9.37
2017-06-03T06:06:04.825Z,9.57
2017-06-03T06:08:36.322Z,10.73
2017-06-03T06:11:07.901Z,10.80
2017-06-03T06:13:39.451Z,10.50
2017-06-03T06:16:11.121Z,11.77
2017-06-03T06:18:42.645Z,9.80
2017-06-03T06:21:14.218Z,10.17
2017-06-03T06:23:45.684Z,11.60
2017-06-03T06:26:17.229Z,19.50
2017-06-03T06:28:48.735Z,11.27
2017-06-03T06:31:20.317Z,10.30
2017-06-03T06:33:52.996Z,9.60
2017-06-03T06:36:24.577Z,11.20
2017-06-03T06:38:56.362Z,11.73
2017-06-03T06:41:27.869Z,11.97
2017-06-03T06:44:00.238Z,11.03
2017-06-03T06:46:32.462Z,10.50
2017-06-03T06:49:04.059Z,10.90
2017-06-03T06:51:35.675Z,11.67
2017-06-03T06:54:07.201Z,11.50
2017-06-03T06:56:38.895Z,11.97
2017-06-03T06:59:11.182Z,11.07
2017-06-03T07:01:43.574Z,11.60
2017-06-03T07:04:15.049Z,11.30
2017-06-03T07:06:46.566Z,11.87
2017-06-03T07:09:18.793Z,11.53
2017-06-03T07:11:50.337Z,10.77
2017-06-03T07:14:21.881Z,11.30
2017-06-03T07:16:53.446Z,11.40
2017-06-03T07:19:24.969Z,11.80
2017-06-03T07:21:56.497Z,12.80
2017-06-03T07:24:28.692Z,11.50
2017-06-03T07:27:00.209Z,12.20
2017-06-03T07:29:31.710Z,12.13
2017-06-03T07:32:03.238Z,11.20
2017-06-03T07:34:35.448Z,11.20
2017-06-03T07:37:07.047Z,13.00
2017-06-03T07:39:38.634Z,11.67
2017-06-03T07:42:10.286Z,13.23
2017-06-03T07:44:41.793Z,11.77
2017-06-03T07:47:13.416Z,12.87
2017-06-03T07:49:44.918Z,11.93
2017-06-03T07:52:17.220Z,11.50
2017-06-03T07:54:48.764Z,11.10
2017-06-03T08:07:07.044Z,12.57
2017-06-03T08:09:38.501Z,12.00
2017-06-03T08:12:10.014Z,16.43
2017-06-03T08:14:41.510Z,14.50
2017-06-03T08:17:13.877Z,11.20
2017-06-03T08:19:45.350Z,12.70
2017-06-03T08:22:16.856Z,11.20
2017-06-03T08:24:48.357Z,13.10
2017-06-03T08:27:19.901Z,10.87
2017-06-03T08:29:51.416Z,12.47
2017-06-03T08:32:22.873Z,12.70
2017-06-03T08:34:54.462Z,12.80
2017-06-03T08:37:25.979Z,11.03
2017-06-03T08:39:57.529Z,12.40
2017-06-03T08:42:29.052Z,11.23
2017-06-03T08:45:00.605Z,12.90
2017-06-03T08:47:32.102Z,11.23
2017-06-03T08:50:04.467Z,12.00
2017-06-03T08:52:36.754Z,11.63
2017-06-03T08:55:09.301Z,11.83
2017-06-03T08:57:40.797Z,11.30
2017-06-03T09:00:12.310Z,13.00
2017-06-03T09:02:43.837Z,12.20
2017-06-03T09:05:15.394Z,12.00
2017-06-03T09:07:46.900Z,13.27
2017-06-03T09:10:18.530Z,11.97
2017-06-03T09:12:50.777Z,11.37
2017-06-03T09:15:22.273Z,11.57
2017-06-03T09:17:54.493Z,12.10
2017-06-03T09:20:26.039Z,11.53
2017-06-03T09:22:57.557Z,11.17
2017-06-03T09:25:29.146Z,12.20
2017-06-03T09:28:00.615Z,12.77
2017-06-03T09:30:32.178Z,11.20
2017-06-03T09:33:03.690Z,12.60
2017-06-03T09:35:35.258Z,11.70
2017-06-03T09:38:06.773Z,11.80
2017-06-03T09:40:38.332Z,12.77
2017-06-03T09:43:09.833Z,12.63
2017-06-03T09:45:41.391Z,11.53
2017-06-03T09:48:12.872Z,12.77
2017-06-03T09:50:44.381Z,11.37
2017-06-03T09:53:15.865Z,12.07
2017-06-03T09:55:48.154Z,13.23
2017-06-03T09:58:19.678Z,12.80
2017-06-03T10:00:51.966Z,11.40
2017-06-03T10:03:24.239Z,12.03
2017-06-03T10:05:56.084Z,10.40
2017-06-03T10:08:28.320Z,10.43
2017-06-03T10:10:59.861Z,9.90
2017-06-03T10:13:31.377Z,11.50
2017-06-03T10:16:02.892Z,10.20
2017-06-03T10:18:34.393Z,10.00
2017-06-03T10:21:05.937Z,10.43
2017-06-03T10:23:37.449Z,10.10
2017-06-03T10:26:08.999Z,10.83
2017-06-03T10:28:40.489Z,9.20
2017-06-03T10:31:12.022Z,8.60
2017-06-03T10:33:44.270Z,10.13
2017-06-03T10:36:15.861Z,9.23
2017-06-03T10:38:48.069Z,10.00
2017-06-03T10:41:19.590Z,9.50
2017-06-03T10:43:51.088Z,9.50
2017-06-03T10:46:22.610Z,10.67
2017-06-03T10:48:54.088Z,9.40
2017-06-03T10:51:25.657Z,8.77
2017-06-03T10:53:57.178Z,8.97
2017-06-03T10:56:28.722Z,9.03
2017-06-03T10:59:00.221Z,10.00
2017-06-03T11:01:32.507Z,9.00
2017-06-03T11:04:04.717Z,9.57
2017-06-03T11:06:36.238Z,10.03
2017-06-03T11:09:07.763Z,9.67
2017-06-03T11:11:39.309Z,9.17
2017-06-03T11:14:10.833Z,9.13
2017-06-03T11:16:42.378Z,9.27
2017-06-03T11:19:13.844Z,9.70
2017-06-03T11:21:45.370Z,8.57
2017-06-03T11:24:16.878Z,8.83
2017-06-03T11:26:49.221Z,8.40
2017-06-03T11:29:20.691Z,9.03
2017-06-03T11:31:52.224Z,8.50
2017-06-03T11:34:23.752Z,8.30
2017-06-03T11:36:55.306Z,7.57
2017-06-03T11:39:26.801Z,8.87
2017-06-03T11:41:58.351Z,8.77
2017-06-03T11:44:29.870Z,9.60
2017-06-03T11:47:01.556Z,8.80
2017-06-03T11:49:33.082Z,8.23
2017-06-03T11:52:04.629Z,8.97
2017-06-03T11:54:36.153Z,10.07
2017-06-03T11:57:07.782Z,8.80
2017-06-03T11:59:39.293Z,7.67
2017-06-03T12:02:10.882Z,7.40
2017-06-03T12:04:42.662Z,7.47
2017-06-03T12:07:14.666Z,8.03
2017-06-03T12:09:46.970Z,7.97
2017-06-03T12:12:18.500Z,7.33
2017-06-03T12:14:50.017Z,10.80
2017-06-03T12:17:21.660Z,8.47
2017-06-03T12:19:53.225Z,8.33
2017-06-03T12:22:24.801Z,8.60
2017-06-03T12:24:56.313Z,9.60
2017-06-03T12:27:27.876Z,8.37
2017-06-03T12:30:00.126Z,8.20
2017-06-03T12:32:31.666Z,7.33
2017-06-03T12:35:03.150Z,9.20
2017-06-03T12:37:34.719Z,7.20
2017-06-03T12:40:06.242Z,7.80
2017-06-03T12:42:37.769Z,8.47
2017-06-03T12:45:09.413Z,8.10
2017-06-03T12:47:41.693Z,7.53
2017-06-03T12:50:13.540Z,7.00
2017-06-03T12:52:45.220Z,6.90
2017-06-03T12:55:17.181Z,7.27
2017-06-03T12:57:48.806Z,7.77
2017-06-03T13:00:20.447Z,8.57
2017-06-03T13:02:51.937Z,7.80
2017-06-03T13:05:23.497Z,7.60
2017-06-03T13:07:55.364Z,7.77
2017-06-03T13:10:27.593Z,7.20
2017-06-03T13:12:59.136Z,6.90
2017-06-03T13:15:30.655Z,6.00
2017-06-03T13:18:02.933Z,7.90
2017-06-03T13:20:35.380Z,7.47
2017-06-03T13:23:06.917Z,7.80
2017-06-03T13:25:38.421Z,7.73
2017-06-03T13:28:09.937Z,8.10
2017-06-03T13:30:41.505Z,7.70
2017-06-03T13:33:13.741Z,7.60
2017-06-03T13:35:45.243Z,7.13
2017-06-03T13:38:16.741Z,7.10
2017-06-03T13:40:48.321Z,6.83
2017-06-03T13:43:19.828Z,7.43
2017-06-03T13:45:51.373Z,8.37
2017-06-03T13:48:22.893Z,7.60
2017-06-03T13:50:55.141Z,8.77
2017-06-03T13:53:26.770Z,7.23
2017-06-03T13:55:58.240Z,8.37
2017-06-03T13:58:29.747Z,7.97
2017-06-03T14:01:01.266Z,7.63
2017-06-03T14:03:33.560Z,7.50
2017-06-03T14:06:05.033Z,7.60
2017-06-03T14:08:36.669Z,6.90
2017-06-03T14:11:08.184Z,8.00
2017-06-03T14:13:39.725Z,7.83
2017-06-03T14:16:11.238Z,7.57
2017-06-03T14:18:42.756Z,7.50
2017-06-03T14:21:14.270Z,7.37
2017-06-03T14:23:45.863Z,7.73
2017-06-03T14:26:18.134Z,7.00
2017-06-03T14:28:49.674Z,7.97
2017-06-03T14:31:21.897Z,7.00
2017-06-03T14:33:53.537Z,6.97
2017-06-03T14:36:25.024Z,7.40
2017-06-03T14:38:56.574Z,7.07
2017-06-03T14:41:28.122Z,6.70
2017-06-03T14:43:59.653Z,7.40
2017-06-03T14:46:31.125Z,6.70
2017-06-03T14:49:02.693Z,7.33
2017-06-03T14:51:34.229Z,7.57
2017-06-03T14:54:05.729Z,6.80
2017-06-03T14:56:37.958Z,7.17
2017-06-03T14:59:09.502Z,6.30
2017-06-03T15:01:41.005Z,6.70
2017-06-03T15:04:13.241Z,6.27
2017-06-03T15:06:44.757Z,6.80
2017-06-03T15:09:16.256Z,6.73
2017-06-03T15:11:47.814Z,7.30
2017-06-03T15:14:19.285Z,7.40
2017-06-03T15:16:51.538Z,7.53
2017-06-03T15:19:23.789Z,6.73
2017-06-03T15:21:55.326Z,6.40
2017-06-03T15:24:26.874Z,6.10
2017-06-03T15:26:58.380Z,7.13
2017-06-03T15:29:29.866Z,6.23
2017-06-03T15:32:01.393Z,7.10
2017-06-03T15:34:32.857Z,6.53
2017-06-03T15:37:04.373Z,5.70
2017-06-03T15:39:36.662Z,6.53
2017-06-03T15:42:08.205Z,6.10
2017-06-03T15:44:39.766Z,6.03
2017-06-03T15:47:12.005Z,5.40
2017-06-03T15:49:43.509Z,6.47
2017-06-03T15:52:15.003Z,6.20
2017-06-03T15:54:47.366Z,5.73
2017-06-03T15:57:18.893Z,5.60
2017-06-03T15:59:50.434Z,6.40
2017-06-03T16:02:21.908Z,5.30
2017-06-03T16:04:53.414Z,5.73
2017-06-03T16:07:25.689Z,5.33
2017-06-03T16:09:57.936Z,6.10
2017-06-03T16:12:29.470Z,6.17
2017-06-03T16:15:00.990Z,6.00
2017-06-03T16:17:32.525Z,6.33
2017-06-03T16:20:03.989Z,5.60
2017-06-03T16:22:35.539Z,5.93
2017-06-03T16:25:07.026Z,6.43
2017-06-03T16:27:38.558Z,5.80
2017-06-03T16:30:10.060Z,5.90
2017-06-03T16:32:42.313Z,6.40
2017-06-03T16:35:13.905Z,6.80
2017-06-03T16:37:45.541Z,5.60
2017-06-03T16:40:17.790Z,6.03
2017-06-03T16:42:49.358Z,5.17
2017-06-03T16:45:20.882Z,6.60
2017-06-03T16:47:52.430Z,5.93
2017-06-03T16:50:23.957Z,5.60
2017-06-03T16:52:55.534Z,5.90
2017-06-03T16:55:27.028Z,5.80
2017-06-03T16:57:59.312Z,5.33
2017-06-03T17:00:30.885Z,5.53
2017-06-03T17:03:02.431Z,5.77
2017-06-03T17:05:33.967Z,6.17
2017-06-03T17:08:05.538Z,5.97
2017-06-03T17:10:37.056Z,6.27
2017-06-03T17:13:09.353Z,6.00
2017-06-03T17:15:40.813Z,5.50
2017-06-03T17:18:12.441Z,4.97
2017-06-03T17:20:43.975Z,5.60
2017-06-03T17:23:15.545Z,5.70
2017-06-03T17:25:47.085Z,5.47
2017-06-03T17:28:19.357Z,5.40
2017-06-03T17:30:50.878Z,5.73
2017-06-03T17:33:22.425Z,5.30
2017-06-03T17:35:53.974Z,5.33
2017-06-03T17:38:25.548Z,5.37
2017-06-03T17:40:57.018Z,6.00
2017-06-03T17:43:28.550Z,6.43
2017-06-03T17:46:00.065Z,5.97
2017-06-03T17:48:31.637Z,5.83
2017-06-03T17:51:03.146Z,5.50
2017-06-03T17:53:34.673Z,5.40
2017-06-03T17:56:06.121Z,5.67
2017-06-03T17:58:37.633Z,6.10
2017-06-03T18:01:09.134Z,5.90
2017-06-03T18:03:40.676Z,5.80
2017-06-03T18:06:12.149Z,5.60
2017-06-03T18:08:43.729Z,5.47
2017-06-03T18:11:15.222Z,5.77
2017-06-03T18:13:46.768Z,5.97
2017-06-03T18:16:18.301Z,5.90
2017-06-03T18:18:49.842Z,5.90
2017-06-03T18:21:21.349Z,6.07
2017-06-03T18:23:52.989Z,6.90
2017-06-03T18:26:24.561Z,7.00
2017-06-03T18:28:56.546Z,6.63
2017-06-03T18:31:28.764Z,6.40
2017-06-03T18:34:00.279Z,6.60
2017-06-03T18:36:31.818Z,6.43
2017-06-03T18:39:03.505Z,7.10
2017-06-03T18:41:34.999Z,7.60
2017-06-03T18:44:06.553Z,8.17
2017-06-03T18:46:38.085Z,8.00
2017-06-03T18:49:09.606Z,7.97
2017-06-03T18:51:41.167Z,7.13
2017-06-03T18:54:12.621Z,8.87
2017-06-03T18:56:44.138Z,8.57
2017-06-03T18:59:17.023Z,8.90
2017-06-03T19:01:49.324Z,9.90
2017-06-03T19:04:20.798Z,9.30
2017-06-03T19:06:52.317Z,9.90
2017-06-03T19:09:23.855Z,9.10
2017-06-03T19:11:56.141Z,8.13
2017-06-03T19:14:22.549Z,8.30
2017-06-03T19:16:54.794Z,7.90
2017-06-03T19:19:26.337Z,7.37
2017-06-03T19:21:57.798Z,7.63
2017-06-03T19:24:29.297Z,6.97
2017-06-03T19:27:00.805Z,6.87
2017-06-03T19:29:32.346Z,7.10
2017-06-03T19:32:03.813Z,7.77
2017-06-03T19:34:35.323Z,8.03
2017-06-03T19:37:06.861Z,8.27
2017-06-03T19:39:38.390Z,8.20
2017-06-03T19:42:10.601Z,8.27
2017-06-03T19:44:42.109Z,8.10
2017-06-03T19:47:13.653Z,7.90
2017-06-03T19:49:45.928Z,9.60
2017-06-03T19:52:17.940Z,7.97
2017-06-03T19:54:49.408Z,9.20
2017-06-03T19:57:20.961Z,8.70
2017-06-03T19:59:52.468Z,8.23
2017-06-03T20:02:24.015Z,8.37
2017-06-03T20:04:55.537Z,9.33
2017-06-03T20:07:27.085Z,9.97
2017-06-03T20:09:58.634Z,9.47
2017-06-03T20:12:30.162Z,9.53
2017-06-03T20:15:01.708Z,8.40
2017-06-03T20:17:33.203Z,8.67
2017-06-03T20:20:04.753Z,10.43
2017-06-03T20:22:36.249Z,9.33
2017-06-03T20:25:07.836Z,10.27
2017-06-03T20:27:39.309Z,9.53
2017-06-03T20:30:10.849Z,10.33
2017-06-03T20:32:42.381Z,9.90
2017-06-03T20:35:13.899Z,9.20
2017-06-03T20:37:45.429Z,10.17
2017-06-03T20:40:16.933Z,9.80
2017-06-03T20:42:48.488Z,9.13
2017-06-03T20:45:20.013Z,10.23
2017-06-03T20:47:51.532Z,8.97
2017-06-03T20:50:23.064Z,11.47
2017-06-03T20:52:54.563Z,9.70
2017-06-03T20:55:26.122Z,10.80
2017-06-03T20:57:57.616Z,9.43
2017-06-03T21:00:29.126Z,9.30
2017-06-03T21:03:00.617Z,9.43
2017-06-03T21:05:32.274Z,9.47
2017-06-03T21:08:03.789Z,10.70
2017-06-03T21:10:35.356Z,10.20
2017-06-03T21:13:06.864Z,10.07
2017-06-03T21:15:38.416Z,9.33
2017-06-03T21:18:10.660Z,9.17
2017-06-03T21:20:42.304Z,9.90
2017-06-03T21:23:13.792Z,9.30
2017-06-03T21:25:45.301Z,8.83
2017-06-03T21:28:16.798Z,9.27
2017-06-03T21:30:48.341Z,9.93
2017-06-03T21:33:19.876Z,9.47
2017-06-03T21:35:51.454Z,9.67
2017-06-03T21:38:22.937Z,9.77
2017-06-03T21:40:54.420Z,8.77
2017-06-03T21:43:25.904Z,9.53
2017-06-03T21:45:57.464Z,9.70
2017-06-03T21:48:29.697Z,8.30
2017-06-03T21:50:56.153Z,8.30
2017-06-03T21:53:27.670Z,8.77
2017-06-03T21:55:59.193Z,9.57
2017-06-03T21:58:30.725Z,8.97
2017-06-03T22:01:02.962Z,9.17
2017-06-03T22:03:34.561Z,9.30
2017-06-03T22:06:06.773Z,8.77
2017-06-03T22:08:38.306Z,9.97
2017-06-03T22:11:09.846Z,9.40
2017-06-03T22:13:41.349Z,9.30
2017-06-03T22:16:12.849Z,9.33
2017-06-03T22:18:44.385Z,8.53
2017-06-03T22:21:16.581Z,9.77
2017-06-03T22:23:43.589Z,8.80
2017-06-03T22:26:15.108Z,9.47
2017-06-03T22:28:46.594Z,9.77
2017-06-03T22:31:18.872Z,9.50
2017-06-03T22:33:51.098Z,9.17
2017-06-03T22:36:22.694Z,9.30
2017-06-03T22:38:54.189Z,8.90
2017-06-03T22:41:25.844Z,8.40
2017-06-03T22:43:57.352Z,8.87
2017-06-03T22:46:29.596Z,8.93
2017-06-03T22:49:01.065Z,8.83
2017-06-03T22:51:32.589Z,9.30
2017-06-03T22:54:04.130Z,8.60
2017-06-03T22:56:35.629Z,9.43
2017-06-03T22:59:07.876Z,7.80
2017-06-03T23:01:39.358Z,8.67
2017-06-03T23:04:11.640Z,9.10
2017-06-03T23:06:43.178Z,9.17
2017-06-03T23:09:15.425Z,9.70
2017-06-03T23:11:46.894Z,8.50
2017-06-03T23:14:19.145Z,8.93
2017-06-03T23:16:50.658Z,9.90
2017-06-03T23:19:17.813Z,9.10
2017-06-03T23:21:49.331Z,10.30
2017-06-03T23:24:21.529Z,9.17
2017-06-03T23:26:53.066Z,8.63
2017-06-03T23:29:25.313Z,8.50
2017-06-03T23:31:57.650Z,7.87
2017-06-03T23:34:29.161Z,9.47
2017-06-03T23:37:00.781Z,8.33
2017-06-03T23:39:33.020Z,8.87
2017-06-03T23:42:04.520Z,8.90
2017-06-03T23:44:36.732Z,9.30
2017-06-03T23:47:08.362Z,8.40
2017-06-03T23:49:39.865Z,8.43
2017-06-03T23:52:11.397Z,8.37
2017-06-03T23:54:42.881Z,7.13
2017-06-03T23:57:15.278Z,8.40
2017-06-03T23:59:46.800Z,8.90
